sensor_id;sensor_type;location;lat;lon;timestamp;P1;durP1;ratioP1;P2;durP2;ratioP2
75038;SDS011;63609;49.992;14.512;2023-05-16T00:03:31;14.20;;;9.15;;
75038;SDS011;63609;49.992;14.512;2023-05-16T00:05:58;12.38;;;7.75;;
75038;SDS011;63609;49.992;14.512;2023-05-16T00:08:25;13.02;;;7.68;;
75038;SDS011;63609;49.992;14.512;2023-05-16T00:10:52;11.48;;;8.40;;
75038;SDS011;63609;49.992;14.512;2023-05-16T00:13:19;12.63;;;8.00;;
75038;SDS011;63609;49.992;14.512;2023-05-16T00:15:51;12.45;;;9.13;;
75038;SDS011;63609;49.992;14.512;2023-05-16T00:18:18;12.77;;;8.95;;
75038;SDS011;63609;49.992;14.512;2023-05-16T00:20:48;13.18;;;8.27;;
75038;SDS011;63609;49.992;14.512;2023-05-16T00:23:15;13.02;;;8.48;;
75038;SDS011;63609;49.992;14.512;2023-05-16T00:25:43;12.65;;;8.40;;
75038;SDS011;63609;49.992;14.512;2023-05-16T00:28:10;12.82;;;8.45;;
75038;SDS011;63609;49.992;14.512;2023-05-16T00:30:37;10.68;;;7.95;;
75038;SDS011;63609;49.992;14.512;2023-05-16T00:33:04;10.68;;;7.88;;
75038;SDS011;63609;49.992;14.512;2023-05-16T00:35:31;11.30;;;7.75;;
75038;SDS011;63609;49.992;14.512;2023-05-16T00:37:58;11.50;;;7.90;;
75038;SDS011;63609;49.992;14.512;2023-05-16T00:40:25;13.93;;;8.02;;
75038;SDS011;63609;49.992;14.512;2023-05-16T00:42:52;11.30;;;8.10;;
75038;SDS011;63609;49.992;14.512;2023-05-16T00:45:19;12.80;;;8.65;;
75038;SDS011;63609;49.992;14.512;2023-05-16T00:47:46;12.43;;;8.40;;
75038;SDS011;63609;49.992;14.512;2023-05-16T00:50:13;11.48;;;8.05;;
75038;SDS011;63609;49.992;14.512;2023-05-16T00:52:40;10.73;;;8.07;;
75038;SDS011;63609;49.992;14.512;2023-05-16T00:55:07;12.45;;;8.65;;
75038;SDS011;63609;49.992;14.512;2023-05-16T00:57:36;14.52;;;8.38;;
75038;SDS011;63609;49.992;14.512;2023-05-16T01:00:06;13.30;;;9.15;;
75038;SDS011;63609;49.992;14.512;2023-05-16T01:02:37;15.20;;;9.02;;
75038;SDS011;63609;49.992;14.512;2023-05-16T01:05:04;11.40;;;8.48;;
75038;SDS011;63609;49.992;14.512;2023-05-16T01:07:34;12.90;;;8.48;;
75038;SDS011;63609;49.992;14.512;2023-05-16T01:10:02;12.75;;;7.75;;
75038;SDS011;63609;49.992;14.512;2023-05-16T01:15:31;11.75;;;7.85;;
75038;SDS011;63609;49.992;14.512;2023-05-16T01:20:58;11.65;;;6.85;;
75038;SDS011;63609;49.992;14.512;2023-05-16T01:23:37;13.15;;;8.02;;
75038;SDS011;63609;49.992;14.512;2023-05-16T01:26:19;14.23;;;7.22;;
75038;SDS011;63609;49.992;14.512;2023-05-16T01:28:49;11.30;;;8.07;;
75038;SDS011;63609;49.992;14.512;2023-05-16T01:31:17;12.98;;;8.43;;
75038;SDS011;63609;49.992;14.512;2023-05-16T01:33:45;11.77;;;8.02;;
75038;SDS011;63609;49.992;14.512;2023-05-16T01:38:51;14.77;;;8.23;;
75038;SDS011;63609;49.992;14.512;2023-05-16T01:41:41;10.93;;;7.63;;
75038;SDS011;63609;49.992;14.512;2023-05-16T01:44:17;11.05;;;7.53;;
75038;SDS011;63609;49.992;14.512;2023-05-16T01:46:49;10.77;;;7.82;;
75038;SDS011;63609;49.992;14.512;2023-05-16T01:49:30;12.75;;;7.68;;
75038;SDS011;63609;49.992;14.512;2023-05-16T01:52:21;10.85;;;8.02;;
75038;SDS011;63609;49.992;14.512;2023-05-16T01:54:53;9.98;;;6.88;;
75038;SDS011;63609;49.992;14.512;2023-05-16T01:57:26;10.48;;;6.90;;
75038;SDS011;63609;49.992;14.512;2023-05-16T01:59:56;11.68;;;7.07;;
75038;SDS011;63609;49.992;14.512;2023-05-16T02:02:24;11.43;;;7.57;;
75038;SDS011;63609;49.992;14.512;2023-05-16T02:04:51;10.45;;;7.30;;
75038;SDS011;63609;49.992;14.512;2023-05-16T02:07:20;10.95;;;7.35;;
75038;SDS011;63609;49.992;14.512;2023-05-16T02:09:47;11.88;;;7.93;;
75038;SDS011;63609;49.992;14.512;2023-05-16T02:12:14;13.75;;;8.23;;
75038;SDS011;63609;49.992;14.512;2023-05-16T02:14:40;10.88;;;8.48;;
75038;SDS011;63609;49.992;14.512;2023-05-16T02:17:07;13.07;;;7.72;;
75038;SDS011;63609;49.992;14.512;2023-05-16T02:19:37;11.50;;;7.70;;
75038;SDS011;63609;49.992;14.512;2023-05-16T02:22:05;12.45;;;8.27;;
75038;SDS011;63609;49.992;14.512;2023-05-16T02:24:32;11.55;;;7.75;;
75038;SDS011;63609;49.992;14.512;2023-05-16T02:27:00;13.52;;;7.72;;
75038;SDS011;63609;49.992;14.512;2023-05-16T02:29:27;12.70;;;7.53;;
75038;SDS011;63609;49.992;14.512;2023-05-16T02:31:53;10.13;;;7.55;;
75038;SDS011;63609;49.992;14.512;2023-05-16T02:34:20;13.90;;;8.02;;
75038;SDS011;63609;49.992;14.512;2023-05-16T02:36:47;10.68;;;7.35;;
75038;SDS011;63609;49.992;14.512;2023-05-16T02:39:14;12.75;;;8.25;;
75038;SDS011;63609;49.992;14.512;2023-05-16T02:41:40;11.85;;;7.88;;
75038;SDS011;63609;49.992;14.512;2023-05-16T02:44:07;14.18;;;7.88;;
75038;SDS011;63609;49.992;14.512;2023-05-16T02:46:34;13.20;;;7.95;;
75038;SDS011;63609;49.992;14.512;2023-05-16T02:49:02;13.50;;;8.63;;
75038;SDS011;63609;49.992;14.512;2023-05-16T02:51:29;13.18;;;8.23;;
75038;SDS011;63609;49.992;14.512;2023-05-16T02:53:56;12.45;;;8.25;;
75038;SDS011;63609;49.992;14.512;2023-05-16T02:56:25;13.43;;;8.85;;
75038;SDS011;63609;49.992;14.512;2023-05-16T02:58:53;13.07;;;8.35;;
75038;SDS011;63609;49.992;14.512;2023-05-16T03:01:21;15.02;;;9.05;;
75038;SDS011;63609;49.992;14.512;2023-05-16T03:03:48;13.32;;;9.05;;
75038;SDS011;63609;49.992;14.512;2023-05-16T03:06:15;13.35;;;8.98;;
75038;SDS011;63609;49.992;14.512;2023-05-16T03:08:42;14.40;;;9.05;;
75038;SDS011;63609;49.992;14.512;2023-05-16T03:11:09;14.25;;;8.02;;
75038;SDS011;63609;49.992;14.512;2023-05-16T03:13:36;11.70;;;8.02;;
75038;SDS011;63609;49.992;14.512;2023-05-16T03:16:03;11.90;;;7.43;;
75038;SDS011;63609;49.992;14.512;2023-05-16T03:18:31;11.38;;;7.78;;
75038;SDS011;63609;49.992;14.512;2023-05-16T03:20:58;12.35;;;8.07;;
75038;SDS011;63609;49.992;14.512;2023-05-16T03:23:25;12.40;;;7.95;;
75038;SDS011;63609;49.992;14.512;2023-05-16T03:25:54;10.65;;;7.28;;
75038;SDS011;63609;49.992;14.512;2023-05-16T03:28:21;11.30;;;7.47;;
75038;SDS011;63609;49.992;14.512;2023-05-16T03:30:48;13.13;;;8.35;;
75038;SDS011;63609;49.992;14.512;2023-05-16T03:33:15;12.73;;;8.73;;
75038;SDS011;63609;49.992;14.512;2023-05-16T03:35:42;12.23;;;7.80;;
75038;SDS011;63609;49.992;14.512;2023-05-16T03:38:09;12.15;;;8.52;;
75038;SDS011;63609;49.992;14.512;2023-05-16T03:40:36;10.65;;;8.20;;
75038;SDS011;63609;49.992;14.512;2023-05-16T03:43:03;12.07;;;8.57;;
75038;SDS011;63609;49.992;14.512;2023-05-16T03:45:30;14.55;;;9.18;;
75038;SDS011;63609;49.992;14.512;2023-05-16T03:47:57;10.25;;;7.55;;
75038;SDS011;63609;49.992;14.512;2023-05-16T03:50:24;14.40;;;7.50;;
75038;SDS011;63609;49.992;14.512;2023-05-16T03:52:51;12.85;;;8.48;;
75038;SDS011;63609;49.992;14.512;2023-05-16T03:55:19;12.48;;;8.65;;
75038;SDS011;63609;49.992;14.512;2023-05-16T03:57:47;13.25;;;8.73;;
75038;SDS011;63609;49.992;14.512;2023-05-16T04:00:15;13.63;;;9.23;;
75038;SDS011;63609;49.992;14.512;2023-05-16T04:02:42;12.63;;;8.43;;
75038;SDS011;63609;49.992;14.512;2023-05-16T04:05:10;16.20;;;9.98;;
75038;SDS011;63609;49.992;14.512;2023-05-16T04:07:39;14.27;;;9.63;;
75038;SDS011;63609;49.992;14.512;2023-05-16T04:10:07;19.08;;;9.93;;
75038;SDS011;63609;49.992;14.512;2023-05-16T04:12:35;14.10;;;8.85;;
75038;SDS011;63609;49.992;14.512;2023-05-16T04:15:02;15.88;;;9.75;;
75038;SDS011;63609;49.992;14.512;2023-05-16T04:17:30;13.05;;;9.45;;
75038;SDS011;63609;49.992;14.512;2023-05-16T04:19:59;14.55;;;9.13;;
75038;SDS011;63609;49.992;14.512;2023-05-16T04:22:26;12.60;;;8.80;;
75038;SDS011;63609;49.992;14.512;2023-05-16T04:24:53;13.55;;;8.90;;
75038;SDS011;63609;49.992;14.512;2023-05-16T04:27:20;12.63;;;8.85;;
75038;SDS011;63609;49.992;14.512;2023-05-16T04:29:47;12.35;;;8.82;;
75038;SDS011;63609;49.992;14.512;2023-05-16T04:32:14;12.93;;;9.10;;
75038;SDS011;63609;49.992;14.512;2023-05-16T04:34:42;13.15;;;9.05;;
75038;SDS011;63609;49.992;14.512;2023-05-16T04:37:12;14.77;;;10.30;;
75038;SDS011;63609;49.992;14.512;2023-05-16T04:39:39;16.85;;;10.18;;
75038;SDS011;63609;49.992;14.512;2023-05-16T04:42:07;17.95;;;11.02;;
75038;SDS011;63609;49.992;14.512;2023-05-16T04:44:33;16.05;;;9.55;;
75038;SDS011;63609;49.992;14.512;2023-05-16T04:47:00;15.40;;;9.10;;
75038;SDS011;63609;49.992;14.512;2023-05-16T04:49:28;17.73;;;11.00;;
75038;SDS011;63609;49.992;14.512;2023-05-16T04:51:55;13.75;;;9.73;;
75038;SDS011;63609;49.992;14.512;2023-05-16T04:54:22;15.95;;;9.60;;
75038;SDS011;63609;49.992;14.512;2023-05-16T04:56:49;16.05;;;10.73;;
75038;SDS011;63609;49.992;14.512;2023-05-16T04:59:16;15.93;;;9.93;;
75038;SDS011;63609;49.992;14.512;2023-05-16T05:01:43;13.85;;;9.40;;
75038;SDS011;63609;49.992;14.512;2023-05-16T05:04:10;14.43;;;9.60;;
75038;SDS011;63609;49.992;14.512;2023-05-16T05:06:37;12.82;;;9.38;;
75038;SDS011;63609;49.992;14.512;2023-05-16T05:09:05;13.38;;;8.98;;
75038;SDS011;63609;49.992;14.512;2023-05-16T05:11:32;13.38;;;10.02;;
75038;SDS011;63609;49.992;14.512;2023-05-16T05:14:00;13.02;;;8.48;;
75038;SDS011;63609;49.992;14.512;2023-05-16T05:16:27;11.48;;;7.75;;
75038;SDS011;63609;49.992;14.512;2023-05-16T05:18:54;14.77;;;9.60;;
75038;SDS011;63609;49.992;14.512;2023-05-16T05:21:21;12.07;;;8.95;;
75038;SDS011;63609;49.992;14.512;2023-05-16T05:23:50;12.65;;;9.27;;
75038;SDS011;63609;49.992;14.512;2023-05-16T05:26:17;15.05;;;9.15;;
75038;SDS011;63609;49.992;14.512;2023-05-16T05:28:44;12.23;;;8.80;;
75038;SDS011;63609;49.992;14.512;2023-05-16T05:31:26;15.32;;;9.10;;
75038;SDS011;63609;49.992;14.512;2023-05-16T05:33:53;14.80;;;9.63;;
75038;SDS011;63609;49.992;14.512;2023-05-16T05:36:22;14.55;;;9.15;;
75038;SDS011;63609;49.992;14.512;2023-05-16T05:38:49;12.23;;;8.68;;
75038;SDS011;63609;49.992;14.512;2023-05-16T05:41:16;13.18;;;8.80;;
75038;SDS011;63609;49.992;14.512;2023-05-16T05:43:42;12.13;;;8.25;;
75038;SDS011;63609;49.992;14.512;2023-05-16T05:46:09;13.65;;;10.07;;
75038;SDS011;63609;49.992;14.512;2023-05-16T05:48:37;13.75;;;9.52;;
75038;SDS011;63609;49.992;14.512;2023-05-16T05:51:04;11.85;;;9.00;;
75038;SDS011;63609;49.992;14.512;2023-05-16T05:53:32;13.82;;;8.68;;
75038;SDS011;63609;49.992;14.512;2023-05-16T05:55:59;15.60;;;10.60;;
75038;SDS011;63609;49.992;14.512;2023-05-16T05:58:26;15.43;;;9.38;;
75038;SDS011;63609;49.992;14.512;2023-05-16T06:00:53;12.70;;;9.45;;
75038;SDS011;63609;49.992;14.512;2023-05-16T06:03:20;14.10;;;9.90;;
75038;SDS011;63609;49.992;14.512;2023-05-16T06:05:47;13.32;;;10.05;;
75038;SDS011;63609;49.992;14.512;2023-05-16T06:08:14;13.68;;;9.90;;
75038;SDS011;63609;49.992;14.512;2023-05-16T06:10:41;16.70;;;10.40;;
75038;SDS011;63609;49.992;14.512;2023-05-16T06:13:08;14.85;;;10.90;;
75038;SDS011;63609;49.992;14.512;2023-05-16T06:15:35;16.30;;;9.88;;
75038;SDS011;63609;49.992;14.512;2023-05-16T06:18:02;13.70;;;10.13;;
75038;SDS011;63609;49.992;14.512;2023-05-16T06:20:29;12.70;;;9.25;;
75038;SDS011;63609;49.992;14.512;2023-05-16T06:22:56;14.63;;;10.45;;
75038;SDS011;63609;49.992;14.512;2023-05-16T06:25:23;14.68;;;9.70;;
75038;SDS011;63609;49.992;14.512;2023-05-16T06:27:51;16.13;;;10.60;;
75038;SDS011;63609;49.992;14.512;2023-05-16T06:30:18;14.30;;;10.45;;
75038;SDS011;63609;49.992;14.512;2023-05-16T06:32:45;18.15;;;10.75;;
75038;SDS011;63609;49.992;14.512;2023-05-16T06:35:12;14.77;;;10.35;;
75038;SDS011;63609;49.992;14.512;2023-05-16T06:37:42;15.50;;;11.02;;
75038;SDS011;63609;49.992;14.512;2023-05-16T06:40:10;13.05;;;9.82;;
75038;SDS011;63609;49.992;14.512;2023-05-16T06:42:38;15.93;;;9.82;;
75038;SDS011;63609;49.992;14.512;2023-05-16T06:45:05;14.23;;;9.68;;
75038;SDS011;63609;49.992;14.512;2023-05-16T06:47:33;14.27;;;10.02;;
75038;SDS011;63609;49.992;14.512;2023-05-16T06:50:00;15.98;;;11.25;;
75038;SDS011;63609;49.992;14.512;2023-05-16T06:52:27;14.43;;;10.32;;
75038;SDS011;63609;49.992;14.512;2023-05-16T06:54:55;14.35;;;9.43;;
75038;SDS011;63609;49.992;14.512;2023-05-16T06:57:22;13.77;;;10.52;;
75038;SDS011;63609;49.992;14.512;2023-05-16T06:59:49;15.13;;;10.18;;
75038;SDS011;63609;49.992;14.512;2023-05-16T07:02:15;15.38;;;10.18;;
75038;SDS011;63609;49.992;14.512;2023-05-16T07:04:42;13.90;;;9.90;;
75038;SDS011;63609;49.992;14.512;2023-05-16T07:07:09;14.55;;;10.30;;
75038;SDS011;63609;49.992;14.512;2023-05-16T07:09:36;13.13;;;9.73;;
75038;SDS011;63609;49.992;14.512;2023-05-16T07:12:04;13.45;;;10.43;;
75038;SDS011;63609;49.992;14.512;2023-05-16T07:14:31;15.07;;;9.45;;
75038;SDS011;63609;49.992;14.512;2023-05-16T07:16:58;12.80;;;9.15;;
75038;SDS011;63609;49.992;14.512;2023-05-16T07:19:25;13.30;;;9.73;;
75038;SDS011;63609;49.992;14.512;2023-05-16T07:21:52;13.43;;;10.52;;
75038;SDS011;63609;49.992;14.512;2023-05-16T07:24:19;13.82;;;9.45;;
75038;SDS011;63609;49.992;14.512;2023-05-16T07:26:46;14.60;;;10.10;;
75038;SDS011;63609;49.992;14.512;2023-05-16T07:29:13;15.90;;;10.55;;
75038;SDS011;63609;49.992;14.512;2023-05-16T07:31:41;13.77;;;9.93;;
75038;SDS011;63609;49.992;14.512;2023-05-16T07:34:08;12.88;;;8.70;;
75038;SDS011;63609;49.992;14.512;2023-05-16T07:36:36;13.00;;;9.05;;
75038;SDS011;63609;49.992;14.512;2023-05-16T07:39:04;17.00;;;10.15;;
75038;SDS011;63609;49.992;14.512;2023-05-16T07:41:31;13.50;;;9.20;;
75038;SDS011;63609;49.992;14.512;2023-05-16T07:43:58;12.57;;;9.10;;
75038;SDS011;63609;49.992;14.512;2023-05-16T07:46:25;14.23;;;10.38;;
75038;SDS011;63609;49.992;14.512;2023-05-16T07:48:52;13.82;;;9.45;;
75038;SDS011;63609;49.992;14.512;2023-05-16T07:51:19;11.80;;;9.25;;
75038;SDS011;63609;49.992;14.512;2023-05-16T07:53:46;15.57;;;11.43;;
75038;SDS011;63609;49.992;14.512;2023-05-16T07:56:12;12.70;;;9.80;;
75038;SDS011;63609;49.992;14.512;2023-05-16T07:58:40;12.38;;;9.70;;
75038;SDS011;63609;49.992;14.512;2023-05-16T08:01:07;14.52;;;9.57;;
75038;SDS011;63609;49.992;14.512;2023-05-16T08:03:34;15.00;;;9.75;;
75038;SDS011;63609;49.992;14.512;2023-05-16T08:06:02;15.65;;;10.07;;
75038;SDS011;63609;49.992;14.512;2023-05-16T08:08:29;13.07;;;9.63;;
75038;SDS011;63609;49.992;14.512;2023-05-16T08:10:56;15.38;;;9.65;;
75038;SDS011;63609;49.992;14.512;2023-05-16T08:13:23;15.13;;;10.02;;
75038;SDS011;63609;49.992;14.512;2023-05-16T08:15:50;15.13;;;10.43;;
75038;SDS011;63609;49.992;14.512;2023-05-16T08:18:17;14.50;;;10.23;;
75038;SDS011;63609;49.992;14.512;2023-05-16T08:20:47;13.63;;;10.13;;
75038;SDS011;63609;49.992;14.512;2023-05-16T08:23:14;13.77;;;10.75;;
75038;SDS011;63609;49.992;14.512;2023-05-16T08:25:42;13.20;;;10.20;;
75038;SDS011;63609;49.992;14.512;2023-05-16T08:28:09;14.05;;;10.95;;
75038;SDS011;63609;49.992;14.512;2023-05-16T08:30:38;12.77;;;9.63;;
75038;SDS011;63609;49.992;14.512;2023-05-16T08:33:08;14.50;;;10.65;;
75038;SDS011;63609;49.992;14.512;2023-05-16T08:35:36;14.32;;;10.73;;
75038;SDS011;63609;49.992;14.512;2023-05-16T08:38:03;16.20;;;11.10;;
75038;SDS011;63609;49.992;14.512;2023-05-16T08:40:30;15.02;;;10.00;;
75038;SDS011;63609;49.992;14.512;2023-05-16T08:42:57;15.18;;;10.27;;
75038;SDS011;63609;49.992;14.512;2023-05-16T08:45:24;12.23;;;9.63;;
75038;SDS011;63609;49.992;14.512;2023-05-16T08:47:55;13.32;;;9.95;;
75038;SDS011;63609;49.992;14.512;2023-05-16T08:50:23;12.02;;;9.82;;
75038;SDS011;63609;49.992;14.512;2023-05-16T08:52:51;15.70;;;10.80;;
75038;SDS011;63609;49.992;14.512;2023-05-16T08:55:19;15.48;;;11.35;;
75038;SDS011;63609;49.992;14.512;2023-05-16T08:57:50;14.57;;;10.77;;
75038;SDS011;63609;49.992;14.512;2023-05-16T09:00:18;16.65;;;10.30;;
75038;SDS011;63609;49.992;14.512;2023-05-16T09:02:46;14.43;;;11.02;;
75038;SDS011;63609;49.992;14.512;2023-05-16T09:05:14;13.50;;;10.70;;
75038;SDS011;63609;49.992;14.512;2023-05-16T09:07:43;14.30;;;11.35;;
75038;SDS011;63609;49.992;14.512;2023-05-16T09:10:11;13.85;;;10.98;;
75038;SDS011;63609;49.992;14.512;2023-05-16T09:12:39;16.80;;;11.27;;
75038;SDS011;63609;49.992;14.512;2023-05-16T09:15:07;14.20;;;11.02;;
75038;SDS011;63609;49.992;14.512;2023-05-16T09:17:37;13.77;;;11.20;;
75038;SDS011;63609;49.992;14.512;2023-05-16T09:20:09;13.70;;;10.63;;
75038;SDS011;63609;49.992;14.512;2023-05-16T09:22:50;15.65;;;10.82;;
75038;SDS011;63609;49.992;14.512;2023-05-16T09:25:20;12.82;;;10.63;;
75038;SDS011;63609;49.992;14.512;2023-05-16T09:27:57;16.05;;;11.63;;
75038;SDS011;63609;49.992;14.512;2023-05-16T09:30:28;13.57;;;10.75;;
75038;SDS011;63609;49.992;14.512;2023-05-16T09:32:57;13.77;;;11.13;;
75038;SDS011;63609;49.992;14.512;2023-05-16T09:35:25;16.10;;;10.77;;
75038;SDS011;63609;49.992;14.512;2023-05-16T09:38:14;17.13;;;11.75;;
75038;SDS011;63609;49.992;14.512;2023-05-16T09:40:44;14.32;;;10.13;;
75038;SDS011;63609;49.992;14.512;2023-05-16T09:43:13;14.20;;;10.52;;
75038;SDS011;63609;49.992;14.512;2023-05-16T09:45:46;13.02;;;10.82;;
75038;SDS011;63609;49.992;14.512;2023-05-16T09:48:15;17.33;;;11.93;;
75038;SDS011;63609;49.992;14.512;2023-05-16T09:50:50;14.57;;;11.45;;
75038;SDS011;63609;49.992;14.512;2023-05-16T09:53:26;13.43;;;11.15;;
75038;SDS011;63609;49.992;14.512;2023-05-16T09:58:29;14.00;;;11.63;;
75038;SDS011;63609;49.992;14.512;2023-05-16T10:00:57;15.52;;;11.65;;
75038;SDS011;63609;49.992;14.512;2023-05-16T10:03:25;13.95;;;11.45;;
75038;SDS011;63609;49.992;14.512;2023-05-16T10:05:53;17.67;;;12.00;;
75038;SDS011;63609;49.992;14.512;2023-05-16T10:08:21;16.65;;;11.57;;
75038;SDS011;63609;49.992;14.512;2023-05-16T10:10:53;14.98;;;11.52;;
75038;SDS011;63609;49.992;14.512;2023-05-16T10:13:22;15.20;;;12.05;;
75038;SDS011;63609;49.992;14.512;2023-05-16T10:15:52;16.20;;;11.82;;
75038;SDS011;63609;49.992;14.512;2023-05-16T10:18:23;14.63;;;10.68;;
75038;SDS011;63609;49.992;14.512;2023-05-16T10:20:56;13.60;;;10.20;;
75038;SDS011;63609;49.992;14.512;2023-05-16T10:23:27;14.00;;;11.10;;
75038;SDS011;63609;49.992;14.512;2023-05-16T10:25:56;15.93;;;11.73;;
75038;SDS011;63609;49.992;14.512;2023-05-16T10:28:24;15.02;;;10.85;;
75038;SDS011;63609;49.992;14.512;2023-05-16T10:30:52;14.75;;;11.60;;
75038;SDS011;63609;49.992;14.512;2023-05-16T10:33:20;15.63;;;12.30;;
75038;SDS011;63609;49.992;14.512;2023-05-16T10:35:47;14.05;;;12.07;;
75038;SDS011;63609;49.992;14.512;2023-05-16T10:38:15;15.50;;;12.45;;
75038;SDS011;63609;49.992;14.512;2023-05-16T10:40:43;17.63;;;12.82;;
75038;SDS011;63609;49.992;14.512;2023-05-16T10:43:21;18.30;;;13.40;;
75038;SDS011;63609;49.992;14.512;2023-05-16T10:45:56;15.70;;;12.23;;
75038;SDS011;63609;49.992;14.512;2023-05-16T10:48:27;17.48;;;11.98;;
75038;SDS011;63609;49.992;14.512;2023-05-16T10:50:56;15.43;;;11.60;;
75038;SDS011;63609;49.992;14.512;2023-05-16T10:53:30;17.35;;;12.18;;
75038;SDS011;63609;49.992;14.512;2023-05-16T11:06:27;18.35;;;12.90;;
75038;SDS011;63609;49.992;14.512;2023-05-16T11:16:52;15.68;;;12.60;;
75038;SDS011;63609;49.992;14.512;2023-05-16T11:22:05;18.13;;;13.35;;
75038;SDS011;63609;49.992;14.512;2023-05-16T11:24:35;16.17;;;11.90;;
75038;SDS011;63609;49.992;14.512;2023-05-16T11:27:04;16.10;;;12.00;;
75038;SDS011;63609;49.992;14.512;2023-05-16T11:29:33;18.27;;;12.75;;
75038;SDS011;63609;49.992;14.512;2023-05-16T11:32:03;17.42;;;12.68;;
75038;SDS011;63609;49.992;14.512;2023-05-16T11:34:34;16.52;;;12.43;;
75038;SDS011;63609;49.992;14.512;2023-05-16T11:37:03;15.45;;;11.65;;
75038;SDS011;63609;49.992;14.512;2023-05-16T11:39:30;15.52;;;12.20;;
75038;SDS011;63609;49.992;14.512;2023-05-16T11:41:58;16.92;;;12.68;;
75038;SDS011;63609;49.992;14.512;2023-05-16T11:44:25;15.80;;;12.10;;
75038;SDS011;63609;49.992;14.512;2023-05-16T11:46:52;18.00;;;12.48;;
75038;SDS011;63609;49.992;14.512;2023-05-16T11:49:19;17.05;;;12.45;;
75038;SDS011;63609;49.992;14.512;2023-05-16T11:51:47;18.05;;;12.35;;
75038;SDS011;63609;49.992;14.512;2023-05-16T11:54:15;15.93;;;12.77;;
75038;SDS011;63609;49.992;14.512;2023-05-16T11:56:42;17.80;;;12.23;;
75038;SDS011;63609;49.992;14.512;2023-05-16T11:59:09;20.92;;;13.13;;
75038;SDS011;63609;49.992;14.512;2023-05-16T12:01:37;16.70;;;12.43;;
75038;SDS011;63609;49.992;14.512;2023-05-16T12:06:37;19.92;;;12.70;;
75038;SDS011;63609;49.992;14.512;2023-05-16T12:09:05;20.70;;;13.45;;
75038;SDS011;63609;49.992;14.512;2023-05-16T12:11:36;19.15;;;13.25;;
75038;SDS011;63609;49.992;14.512;2023-05-16T12:14:04;17.60;;;12.60;;
75038;SDS011;63609;49.992;14.512;2023-05-16T12:16:36;17.83;;;12.93;;
75038;SDS011;63609;49.992;14.512;2023-05-16T12:19:04;16.77;;;12.07;;
75038;SDS011;63609;49.992;14.512;2023-05-16T12:21:33;18.02;;;12.43;;
75038;SDS011;63609;49.992;14.512;2023-05-16T12:24:00;17.40;;;12.15;;
75038;SDS011;63609;49.992;14.512;2023-05-16T12:26:31;15.73;;;11.80;;
75038;SDS011;63609;49.992;14.512;2023-05-16T12:28:59;17.73;;;11.70;;
75038;SDS011;63609;49.992;14.512;2023-05-16T12:31:29;20.33;;;13.02;;
75038;SDS011;63609;49.992;14.512;2023-05-16T12:33:58;17.95;;;12.30;;
75038;SDS011;63609;49.992;14.512;2023-05-16T12:36:25;16.25;;;11.15;;
75038;SDS011;63609;49.992;14.512;2023-05-16T12:38:52;17.48;;;11.55;;
75038;SDS011;63609;49.992;14.512;2023-05-16T12:41:20;22.17;;;13.50;;
75038;SDS011;63609;49.992;14.512;2023-05-16T12:43:48;21.40;;;13.15;;
75038;SDS011;63609;49.992;14.512;2023-05-16T12:46:15;21.42;;;13.57;;
75038;SDS011;63609;49.992;14.512;2023-05-16T12:48:43;23.83;;;13.40;;
75038;SDS011;63609;49.992;14.512;2023-05-16T12:51:11;21.73;;;13.48;;
75038;SDS011;63609;49.992;14.512;2023-05-16T12:53:46;20.15;;;13.38;;
75038;SDS011;63609;49.992;14.512;2023-05-16T12:56:37;18.63;;;12.27;;
75038;SDS011;63609;49.992;14.512;2023-05-16T12:59:04;19.95;;;11.82;;
75038;SDS011;63609;49.992;14.512;2023-05-16T13:01:32;18.67;;;10.95;;
75038;SDS011;63609;49.992;14.512;2023-05-16T13:04:00;17.70;;;11.80;;
75038;SDS011;63609;49.992;14.512;2023-05-16T13:06:29;20.40;;;11.15;;
75038;SDS011;63609;49.992;14.512;2023-05-16T13:09:10;15.07;;;9.93;;
75038;SDS011;63609;49.992;14.512;2023-05-16T13:11:38;21.60;;;11.70;;
75038;SDS011;63609;49.992;14.512;2023-05-16T13:14:05;21.15;;;11.63;;
75038;SDS011;63609;49.992;14.512;2023-05-16T13:16:32;19.80;;;11.77;;
75038;SDS011;63609;49.992;14.512;2023-05-16T13:18:59;15.93;;;10.25;;
75038;SDS011;63609;49.992;14.512;2023-05-16T13:21:28;15.45;;;10.43;;
75038;SDS011;63609;49.992;14.512;2023-05-16T13:23:57;15.13;;;9.15;;
75038;SDS011;63609;49.992;14.512;2023-05-16T13:26:24;13.35;;;9.20;;
75038;SDS011;63609;49.992;14.512;2023-05-16T13:28:53;15.70;;;10.10;;
75038;SDS011;63609;49.992;14.512;2023-05-16T13:31:20;15.10;;;9.48;;
75038;SDS011;63609;49.992;14.512;2023-05-16T13:33:48;13.82;;;9.23;;
75038;SDS011;63609;49.992;14.512;2023-05-16T13:36:15;15.18;;;9.65;;
75038;SDS011;63609;49.992;14.512;2023-05-16T13:38:42;13.07;;;8.82;;
75038;SDS011;63609;49.992;14.512;2023-05-16T13:41:09;15.88;;;10.05;;
75038;SDS011;63609;49.992;14.512;2023-05-16T13:43:36;15.95;;;9.75;;
75038;SDS011;63609;49.992;14.512;2023-05-16T13:46:03;15.00;;;9.73;;
75038;SDS011;63609;49.992;14.512;2023-05-16T13:48:30;15.77;;;9.93;;
75038;SDS011;63609;49.992;14.512;2023-05-16T13:50:56;14.82;;;10.38;;
75038;SDS011;63609;49.992;14.512;2023-05-16T13:53:24;14.65;;;9.43;;
75038;SDS011;63609;49.992;14.512;2023-05-16T13:55:51;16.67;;;10.15;;
75038;SDS011;63609;49.992;14.512;2023-05-16T13:58:18;17.70;;;10.02;;
75038;SDS011;63609;49.992;14.512;2023-05-16T14:00:45;16.17;;;9.95;;
75038;SDS011;63609;49.992;14.512;2023-05-16T14:03:14;15.85;;;9.95;;
75038;SDS011;63609;49.992;14.512;2023-05-16T14:05:41;17.92;;;10.98;;
75038;SDS011;63609;49.992;14.512;2023-05-16T14:08:08;15.68;;;10.45;;
75038;SDS011;63609;49.992;14.512;2023-05-16T14:10:35;16.55;;;10.10;;
75038;SDS011;63609;49.992;14.512;2023-05-16T14:13:02;14.63;;;9.77;;
75038;SDS011;63609;49.992;14.512;2023-05-16T14:15:29;14.65;;;9.70;;
75038;SDS011;63609;49.992;14.512;2023-05-16T14:17:57;15.10;;;9.80;;
75038;SDS011;63609;49.992;14.512;2023-05-16T14:20:25;16.48;;;10.40;;
75038;SDS011;63609;49.992;14.512;2023-05-16T14:22:52;15.25;;;9.95;;
75038;SDS011;63609;49.992;14.512;2023-05-16T14:25:19;14.90;;;8.95;;
75038;SDS011;63609;49.992;14.512;2023-05-16T14:27:46;16.00;;;10.13;;
75038;SDS011;63609;49.992;14.512;2023-05-16T14:30:16;15.02;;;10.40;;
75038;SDS011;63609;49.992;14.512;2023-05-16T14:32:43;15.82;;;9.90;;
75038;SDS011;63609;49.992;14.512;2023-05-16T14:35:10;16.65;;;10.18;;
75038;SDS011;63609;49.992;14.512;2023-05-16T14:37:37;14.70;;;9.60;;
75038;SDS011;63609;49.992;14.512;2023-05-16T14:40:04;15.60;;;9.82;;
75038;SDS011;63609;49.992;14.512;2023-05-16T14:42:34;13.82;;;9.50;;
75038;SDS011;63609;49.992;14.512;2023-05-16T14:45:01;16.50;;;9.75;;
75038;SDS011;63609;49.992;14.512;2023-05-16T14:47:28;14.27;;;9.68;;
75038;SDS011;63609;49.992;14.512;2023-05-16T14:49:56;14.30;;;8.77;;
75038;SDS011;63609;49.992;14.512;2023-05-16T14:52:26;15.18;;;9.00;;
75038;SDS011;63609;49.992;14.512;2023-05-16T14:54:55;12.15;;;8.20;;
75038;SDS011;63609;49.992;14.512;2023-05-16T14:57:22;11.90;;;7.15;;
75038;SDS011;63609;49.992;14.512;2023-05-16T14:59:49;12.43;;;7.57;;